Nearby METAR Reports

 

KSJC - San Jose, California, USA
Distance from station: NE 9mi, 14km
Updated: Sun, 24-Oct-2021 11:53am PDT
Light rain, Overcast
Light rain, Overcast
 Wind from SE
Wind: SE 20 mph , 31 km/h, Gust: 25 mph , 41 km/h
Temperature: 63°F , 17°C
Dew Point: 59°F , 15°C
Humidity: 88%
Barometer: 29.69 inHg , 1005.4 hPa
Summary: Light rain
Clouds: Overcast
Visibility: 9 miles , 14 km
Cloud details: Few Clouds 0 ft
Mostly cloudy 2700 ft
Overcast 5000 ft
2021/10/24 18:53 KSJC 241853Z 14017G22KT 9SM -RA FEW000 BKN027 OVC050 17/15 A2969 RMK AO2 PK WND 14027/1823 RAE36B43 SLP054 P0000 T01720150
KNUQ - Moffett Nas/Mtn, California, USA
Distance from station: N 9mi, 14km
Updated: Fri, 22-Oct-2021 2:15am PDT
NOT Current
Overcast
Overcast
 Wind from ESE
Wind: ESE 14 mph , 22 km/h
Temperature: 64°F , 18°C
Dew Point: 57°F , 14°C
Humidity: 78%
Barometer: 29.99 inHg , 1015.6 hPa
Clouds: Overcast
Visibility: 10 miles , 16 km
Cloud details: Few Clouds 2200 ft
Overcast 3000 ft
2021/10/22 09:15 KNUQ 220915Z AUTO 11012KT 10SM FEW022 OVC030 18/14 A2999 RMK AO2
KPAO - Palo Alto, California, USA
Distance from station: NNW 14mi, 23km
Updated: Sun, 24-Oct-2021 9:47am PDT
NOT Current
Light rain, Mostly cloudy
Light rain, Mostly cloudy
 Wind from S
Wind: S 14 mph , 22 km/h, Gust: 23 mph , 37 km/h
Temperature: 61°F , 16°C
Dew Point: 57°F , 14°C
Humidity: 88%
Barometer: 29.69 inHg , 1005.4 hPa
Summary: Light rain
Clouds: Mostly cloudy
Visibility: 7 miles , 11 km
Cloud details: Mostly cloudy 2000 ft
2021/10/24 16:47 KPAO 241647Z 18012G20KT 7SM -RA BKN020 16/14 A2969
 
KRHV - San Jose/Reid, California, USA
Distance from station: ENE 12mi, 19km
Updated: Sun, 24-Oct-2021 12:03pm PDT
Light rain, Overcast
Light rain, Overcast
 Wind from SE
Wind: SE 21 mph , 33 km/h, Gust: 30 mph , 48 km/h
Temperature: 63°F , 17°C
Dew Point: 57°F , 14°C
Humidity: 83%
Barometer: 29.71 inHg , 1006.1 hPa
Summary: Light rain
Clouds: Overcast
Visibility: 2 miles , 3 km
Cloud details: Mostly cloudy 800 ft
Overcast 10000 ft
2021/10/24 19:03 KRHV 241903Z 14018G26KT 2SM -RA BKN008 OVC100 17/14 A2971 RMK LANDING RUNWAY 31R ONLY DUE TO CEILING
KOAK - Oakland, California, USA
Distance from station: NNW 31mi, 50km
Updated: Sun, 24-Oct-2021 11:53am PDT
Light rain, Mist, Overcast
Light rain, Mist, Overcast
 Wind from SSE
Wind: SSE 26 mph , 43 km/h, Gust: 33 mph , 54 km/h
Temperature: 64°F , 18°C
Dew Point: 61°F , 16°C
Humidity: 88%
Barometer: 29.62 inHg , 1003 hPa
Summary: Light rain, Mist
Clouds: Overcast
Visibility: 3 miles , 5 km
Cloud details: Mostly cloudy 2200 ft
Overcast 2800 ft
2021/10/24 18:53 KOAK 241853Z 16023G29KT 3SM -RA BR BKN022 OVC028 18/16 A2962 RMK AO2 PK WND 18034/1840 SLP030 P0005 T01780156
KSQL - San Carlos Airpo, California, USA
Distance from station: NW 21mi, 34km
Updated: Sun, 24-Oct-2021 11:50am PDT
Overcast
Overcast
 Wind from S
Wind: S 21 mph , 33 km/h, Gust: 40 mph , 65 km/h
Temperature: 64°F , 18°C
Dew Point: 61°F , 16°C
Humidity: 88%
Barometer: 29.64 inHg , 1003.7 hPa
Clouds: Overcast
Visibility: 2 miles , 3 km
Cloud details: Overcast 2700 ft
2021/10/24 18:50 KSQL 241850Z 18018G35KT 2SM OVC027 18/16 A2964
 
KSFO - San Francisco, California, USA
Distance from station: NW 30mi, 49km
Updated: Sun, 24-Oct-2021 11:56am PDT
Light rain, Mist, Overcast
Light rain, Mist, Overcast
 Wind from S
Wind: S 41 mph , 67 km/h, Gust: 56 mph , 91 km/h
Temperature: 63°F , 17°C
Dew Point: 61°F , 16°C
Humidity: 94%
Barometer: 29.60 inHg , 1002.4 hPa
Summary: Light rain, Mist
Clouds: Overcast
Visibility: 2 miles , 3 km
Cloud details: Few Clouds 800 ft
Mostly cloudy 2200 ft
Overcast 3400 ft
2021/10/24 18:56 KSFO 241856Z 19036G49KT 2SM -RA BR FEW008 BKN022 OVC034 17/16 A2960 RMK AO2 PK WND 20049/1851 SLP023 P0009 T01720156
KE16 - San Martin, California, USA
Distance from station: ESE 27mi, 43km
Updated: Sun, 24-Oct-2021 12:15pm PDT
Overcast
Overcast
 Wind from E
Wind: E 3 mph , 6 km/h
Temperature: 61°F , 16°C
Dew Point: 57°F , 14°C
Humidity: 88%
Barometer: 29.76 inHg , 1007.8 hPa
Clouds: Overcast
Visibility: 10 miles , 16 km
Cloud details: Overcast 2000 ft
2021/10/24 19:15 KE16 241915Z AUTO 09003KT 10SM OVC020 16/14 A2976 RMK AO2
KWVI - Watsonville, California, USA
Distance from station: SSE 27mi, 44km
Updated: Sun, 24-Oct-2021 11:53am PDT
Overcast
Overcast
 Wind from SSW
Wind: SSW 24 mph , 39 km/h, Gust: 36 mph , 57 km/h
Temperature: 64°F , 18°C
Dew Point: 59°F , 15°C
Humidity: 83%
Barometer: 29.75 inHg , 1007.5 hPa
Clouds: Overcast
Visibility: 10 miles , 16 km
Cloud details: Overcast 4600 ft
2021/10/24 18:53 KWVI 241853Z AUTO 21021G31KT 10SM OVC046 18/15 A2975 RMK AO2 PK WND 20035/1837 SLP074 T01780150
 
KHAF - Half Moon Bay, California, USA
Distance from station: WNW 31mi, 50km
Updated: Sun, 24-Oct-2021 12:15pm PDT
Fog, Overcast
Fog, Overcast
 
Temperature: 59°F , 15°C
Dew Point: 59°F , 15°C
Humidity: 100%
Summary: Fog
Clouds: Overcast
Visibility: 1/2 mile , 0.8 km
Cloud details: Overcast 400 ft
2021/10/24 19:15 KHAF 241915Z AUTO 1/2SM FG OVC004 15/15 RMK AO2
KHWD - Hayward, California, USA
Distance from station: N 28mi, 44km
Updated: Sun, 24-Oct-2021 11:54am PDT
Light rain, Mist, Overcast
Light rain, Mist, Overcast
 Wind from S
Wind: S 21 mph , 33 km/h, Gust: 31 mph , 50 km/h
Temperature: 63°F , 17°C
Dew Point: 57°F , 14°C
Humidity: 83%
Barometer: 29.63 inHg , 1003.4 hPa
Summary: Light rain, Mist
Clouds: Overcast
Visibility: 2 1/2 miles , 4 km
Cloud details: Overcast 2100 ft
2021/10/24 18:54 KHWD 241854Z 17018G27KT 2 1/2SM -RA BR OVC021 17/14 A2963 RMK AO2 PK WND 17029/1836 SLP044 P0007 T01670144
KLVK - Livermore, California, USA
Distance from station: NNE 31mi, 51km
Updated: Sun, 24-Oct-2021 11:53am PDT
Light rain, Mist, Overcast
Light rain, Mist, Overcast
 Wind from SSW
Wind: SSW 23 mph , 37 km/h, Gust: 35 mph , 56 km/h
Temperature: 63°F , 17°C
Dew Point: 59°F , 15°C
Humidity: 88%
Barometer: 29.61 inHg , 1002.7 hPa
Summary: Light rain, Mist
Clouds: Overcast
Visibility: 5 miles , 8 km
Cloud details: Partly cloudy 2700 ft
Mostly cloudy 3400 ft
Overcast 6000 ft
2021/10/24 18:53 KLVK 241853Z 20020G30KT 5SM -RA BR SCT027 BKN034 OVC060 17/15 A2961 RMK AO2 PK WND 21040/1818 SLP025 P0003 T01720150